createdAt,value
2019-04-28T00:00:42.736Z,79.70
2019-04-28T00:03:13.953Z,80.20
2019-04-28T00:05:44.667Z,79.90
2019-04-28T00:08:15.054Z,79.70
2019-04-28T00:10:45.391Z,80.60
2019-04-28T00:13:16.219Z,81.30
2019-04-28T00:15:46.554Z,81.30
2019-04-28T00:18:16.913Z,81.90
2019-04-28T00:20:52.111Z,81.30
2019-04-28T00:23:26.556Z,81.30
2019-04-28T00:26:11.115Z,81.30
2019-04-28T00:28:41.941Z,81.30
2019-04-28T00:31:12.256Z,82.00
2019-04-28T00:33:43.572Z,83.30
2019-04-28T00:36:14.151Z,84.10
2019-04-28T00:38:44.885Z,85.50
2019-04-28T00:41:15.270Z,86.60
2019-04-28T00:43:45.784Z,86.90
2019-04-28T00:46:17.807Z,88.10
2019-04-28T00:48:48.247Z,88.50
2019-04-28T00:51:18.607Z,89.00
2019-04-28T00:53:50.784Z,89.80
2019-04-28T00:56:21.821Z,90.40
2019-04-28T00:58:53.175Z,90.70
2019-04-28T01:01:34.301Z,91.70
2019-04-28T01:04:04.677Z,92.10
2019-04-28T01:06:35.023Z,92.50
2019-04-28T01:09:07.824Z,92.70
2019-04-28T01:11:38.544Z,93.00
2019-04-28T01:14:09.260Z,93.20
2019-04-28T01:16:41.267Z,93.20
2019-04-28T01:19:13.661Z,92.90
2019-04-28T01:22:10.666Z,92.90
2019-04-28T01:24:41.048Z,93.20
2019-04-28T01:27:31.810Z,93.00
2019-04-28T01:30:08.449Z,93.00
2019-04-28T01:32:49.881Z,92.80
2019-04-28T01:35:21.044Z,92.30
2019-04-28T01:37:51.835Z,92.20
2019-04-28T01:40:22.233Z,92.40
2019-04-28T01:42:53.298Z,92.20
2019-04-28T01:45:23.695Z,92.20
2019-04-28T01:47:54.075Z,92.90
2019-04-28T01:50:24.434Z,92.80
2019-04-28T01:52:55.209Z,92.80
2019-04-28T01:55:25.586Z,93.00
2019-04-28T01:57:56.598Z,92.90
2019-04-28T02:00:26.961Z,92.70
2019-04-28T02:02:57.379Z,92.90
2019-04-28T02:05:29.527Z,93.00
2019-04-28T02:08:00.406Z,93.30
2019-04-28T02:10:30.800Z,93.10
2019-04-28T02:13:01.209Z,92.80
2019-04-28T02:15:31.558Z,92.90
2019-04-28T02:18:01.894Z,92.80
2019-04-28T02:20:32.350Z,92.40
2019-04-28T02:23:04.598Z,91.60
2019-04-28T02:25:35.361Z,91.10
2019-04-28T02:28:05.709Z,91.10
2019-04-28T02:30:45.290Z,91.10
2019-04-28T02:33:10.994Z,91.40
2019-04-28T02:35:41.980Z,91.30
2019-04-28T02:38:12.986Z,89.70
2019-04-28T02:40:43.828Z,89.70
2019-04-28T02:43:14.573Z,88.70
2019-04-28T02:45:45.750Z,88.20
2019-04-28T02:48:17.695Z,86.50
2019-04-28T02:51:02.113Z,86.40
2019-04-28T02:53:34.482Z,85.30
2019-04-28T02:56:04.765Z,86.00
2019-04-28T02:58:35.161Z,86.50
2019-04-28T03:01:12.982Z,85.60
2019-04-28T03:03:37.933Z,85.90
2019-04-28T03:06:10.829Z,87.10
2019-04-28T03:08:41.295Z,86.00
2019-04-28T03:11:12.498Z,84.30
2019-04-28T03:13:42.869Z,84.80
2019-04-28T03:16:13.289Z,85.00
2019-04-28T03:18:44.061Z,85.30
2019-04-28T03:21:14.760Z,86.10
2019-04-28T03:23:45.128Z,85.30
2019-04-28T03:26:26.393Z,84.20
2019-04-28T03:29:01.273Z,83.70
2019-04-28T03:32:01.106Z,85.30
2019-04-28T03:34:12.576Z,86.10
2019-04-28T03:36:41.053Z,86.50
2019-04-28T03:39:11.943Z,89.00
2019-04-28T03:41:42.297Z,90.00
2019-04-28T03:44:12.634Z,90.10
2019-04-28T03:46:47.610Z,90.40
2019-04-28T03:49:35.089Z,90.70
2019-04-28T03:52:06.775Z,91.80
2019-04-28T03:54:37.283Z,92.30
2019-04-28T03:57:11.989Z,92.60
2019-04-28T03:59:43.843Z,92.70
2019-04-28T04:02:14.394Z,92.60
2019-04-28T04:04:44.771Z,93.10
2019-04-28T04:07:15.169Z,93.50
2019-04-28T04:09:47.546Z,94.20
2019-04-28T04:12:21.188Z,94.20
2019-04-28T04:15:03.974Z,94.10
2019-04-28T04:17:41.644Z,95.00
2019-04-28T04:20:20.726Z,94.80
2019-04-28T04:22:51.827Z,95.50
2019-04-28T04:25:22.490Z,95.80
2019-04-28T04:27:53.224Z,95.90
2019-04-28T04:30:23.649Z,96.20
2019-04-28T04:32:54.364Z,96.60
2019-04-28T04:35:24.761Z,96.80
2019-04-28T04:37:55.499Z,96.60
2019-04-28T04:40:25.883Z,96.70
2019-04-28T04:42:56.232Z,97.10
2019-04-28T04:45:27.300Z,97.50
2019-04-28T04:48:00.303Z,97.40
2019-04-28T04:50:31.334Z,97.40
2019-04-28T04:53:02.884Z,97.40
2019-04-28T04:55:33.665Z,97.40
2019-04-28T04:58:04.034Z,97.40
2019-04-28T05:00:54.452Z,97.80
2019-04-28T05:03:33.463Z,97.40
2019-04-28T05:06:06.159Z,97.40
2019-04-28T05:08:36.873Z,97.40
2019-04-28T05:11:27.049Z,97.40
2019-04-28T05:13:59.673Z,97.40
2019-04-28T05:16:31.098Z,97.40
2019-04-28T05:19:02.297Z,97.40
2019-04-28T05:21:33.572Z,97.40
2019-04-28T05:24:16.357Z,97.40
2019-04-28T05:26:49.612Z,97.40
2019-04-28T05:29:26.641Z,97.40
2019-04-28T05:31:54.853Z,97.40
2019-04-28T05:34:25.777Z,97.20
2019-04-28T05:36:56.381Z,97.00
2019-04-28T05:39:27.389Z,97.10
2019-04-28T05:41:57.808Z,97.30
2019-04-28T05:44:29.941Z,97.10
2019-04-28T05:47:01.256Z,96.70
2019-04-28T05:49:33.652Z,96.80
2019-04-28T05:52:06.027Z,97.20
2019-04-28T05:54:38.008Z,97.80
2019-04-28T05:57:21.939Z,97.40
2019-04-28T06:00:00.055Z,97.30
2019-04-28T06:02:31.036Z,97.40
2019-04-28T06:05:01.400Z,97.70
2019-04-28T06:07:33.407Z,97.50
2019-04-28T06:10:06.586Z,97.50
2019-04-28T06:12:37.042Z,97.10
2019-04-28T06:15:07.557Z,96.40
2019-04-28T06:17:39.573Z,96.30
2019-04-28T06:20:11.860Z,96.50
2019-04-28T06:22:42.692Z,96.00
2019-04-28T06:25:13.156Z,95.80
2019-04-28T06:27:43.533Z,95.80
2019-04-28T06:30:14.639Z,95.80
2019-04-28T06:32:45.253Z,95.60
2019-04-28T06:35:15.954Z,95.80
2019-04-28T06:37:46.367Z,95.60
2019-04-28T06:40:17.410Z,96.00
2019-04-28T06:42:47.753Z,95.60
2019-04-28T06:45:18.121Z,95.70
2019-04-28T06:47:49.250Z,95.60
2019-04-28T06:50:19.649Z,95.80
2019-04-28T06:52:49.995Z,96.10
2019-04-28T06:55:20.555Z,95.60
2019-04-28T06:57:50.956Z,95.80
2019-04-28T07:00:21.449Z,95.70
2019-04-28T07:02:51.788Z,95.70
2019-04-28T07:05:22.531Z,95.70
2019-04-28T07:07:53.297Z,95.10
2019-04-28T07:10:24.152Z,94.80
2019-04-28T07:12:54.543Z,95.00
2019-04-28T07:15:24.932Z,95.10
2019-04-28T07:17:56.121Z,94.70
2019-04-28T07:20:28.516Z,94.80
2019-04-28T07:22:58.958Z,95.00
2019-04-28T07:25:29.356Z,95.70
2019-04-28T07:28:00.078Z,95.00
2019-04-28T07:30:30.530Z,94.60
2019-04-28T07:33:00.926Z,94.40
2019-04-28T07:35:31.446Z,93.70
2019-04-28T07:38:02.290Z,92.70
2019-04-28T07:40:32.836Z,93.00
2019-04-28T07:43:03.207Z,94.10
2019-04-28T07:45:33.980Z,93.20
2019-04-28T07:48:04.488Z,93.40
2019-04-28T07:50:35.512Z,93.70
2019-04-28T07:53:19.577Z,93.40
2019-04-28T07:55:50.256Z,93.80
2019-04-28T07:58:21.293Z,94.10
2019-04-28T08:00:52.745Z,94.40
2019-04-28T08:03:23.168Z,94.40
2019-04-28T08:05:53.853Z,94.70
2019-04-28T08:08:24.850Z,94.90
2019-04-28T08:10:55.199Z,94.70
2019-04-28T08:13:25.572Z,93.50
2019-04-28T08:15:56.356Z,92.70
2019-04-28T08:18:26.772Z,92.70
2019-04-28T08:20:57.552Z,92.30
2019-04-28T08:23:28.321Z,92.20
2019-04-28T08:25:59.123Z,92.20
2019-04-28T08:28:29.763Z,92.50
2019-04-28T08:31:00.154Z,92.10
2019-04-28T08:34:01.827Z,93.20
2019-04-28T08:36:22.668Z,93.90
2019-04-28T08:38:53.333Z,94.50
2019-04-28T08:41:23.733Z,94.80
2019-04-28T08:43:54.094Z,94.10
2019-04-28T08:46:24.479Z,94.50
2019-04-28T08:48:55.137Z,94.20
2019-04-28T08:51:26.223Z,94.70
2019-04-28T08:53:56.621Z,94.60
2019-04-28T08:56:26.990Z,94.20
2019-04-28T08:58:57.644Z,93.10
2019-04-28T09:01:27.984Z,93.00
2019-04-28T09:03:58.616Z,93.00
2019-04-28T09:06:28.995Z,91.90
2019-04-28T09:08:59.710Z,92.20
2019-04-28T09:11:30.466Z,92.00
2019-04-28T09:14:00.831Z,90.20
2019-04-28T09:16:31.221Z,88.70
2019-04-28T09:19:02.072Z,87.30
2019-04-28T09:21:32.439Z,87.60
2019-04-28T09:24:02.783Z,88.60
2019-04-28T09:26:33.167Z,86.60
2019-04-28T09:29:03.847Z,87.80
2019-04-28T09:31:34.824Z,80.50
2019-04-28T09:34:05.561Z,80.00
2019-04-28T09:36:35.905Z,82.30
2019-04-28T09:39:08.146Z,80.50
2019-04-28T09:41:40.157Z,79.20
2019-04-28T09:44:12.938Z,75.00
2019-04-28T09:46:45.280Z,73.50
2019-04-28T09:49:16.352Z,72.40
2019-04-28T09:51:46.721Z,73.20
2019-04-28T09:54:17.078Z,72.40
2019-04-28T09:56:56.358Z,73.30
2019-04-28T09:59:19.770Z,69.20
2019-04-28T10:01:50.154Z,63.40
2019-04-28T10:04:21.242Z,62.40
2019-04-28T10:06:51.989Z,61.90
2019-04-28T10:09:22.720Z,59.30
2019-04-28T10:11:53.054Z,59.30
2019-04-28T10:14:23.444Z,54.60
2019-04-28T10:16:54.468Z,54.80
2019-04-28T10:19:24.861Z,53.80
2019-04-28T10:21:55.243Z,54.30
2019-04-28T10:24:25.685Z,56.20
2019-04-28T10:26:56.345Z,52.30
2019-04-28T10:29:26.753Z,52.10
2019-04-28T10:31:57.125Z,54.80
2019-04-28T10:34:27.569Z,49.80
2019-04-28T10:36:57.959Z,47.60
2019-04-28T10:39:29.933Z,45.80
2019-04-28T10:42:00.316Z,47.10
2019-04-28T10:44:32.657Z,45.70
2019-04-28T10:47:02.991Z,46.00
2019-04-28T10:49:33.821Z,47.80
2019-04-28T10:52:04.509Z,47.80
2019-04-28T10:54:35.184Z,47.50
2019-04-28T10:57:05.881Z,48.60
2019-04-28T10:59:36.703Z,49.20
2019-04-28T11:02:07.360Z,49.10
2019-04-28T11:04:39.625Z,49.00
2019-04-28T11:07:11.999Z,48.00
2019-04-28T11:12:53.993Z,45.90
2019-04-28T11:15:31.847Z,43.50
2019-04-28T11:18:02.461Z,43.20
2019-04-28T11:20:33.642Z,43.60
2019-04-28T11:23:05.041Z,41.00
2019-04-28T11:25:35.379Z,42.80
2019-04-28T11:28:06.225Z,41.30
2019-04-28T11:30:36.932Z,41.50
2019-04-28T11:33:14.774Z,41.50
2019-04-28T11:35:47.166Z,41.50
2019-04-28T11:38:17.528Z,43.30
2019-04-28T11:40:48.260Z,41.50
2019-04-28T11:43:18.605Z,43.00
2019-04-28T11:45:49.093Z,44.40
2019-04-28T11:48:19.820Z,45.30
2019-04-28T11:50:50.455Z,43.30
2019-04-28T11:53:20.810Z,45.00
2019-04-28T11:55:51.151Z,44.80
2019-04-28T11:58:21.791Z,44.20
2019-04-28T12:00:52.127Z,45.60
2019-04-28T12:03:22.491Z,45.70
2019-04-28T12:05:52.969Z,44.50
2019-04-28T12:08:23.753Z,44.90
2019-04-28T12:10:55.762Z,44.40
2019-04-28T12:13:33.571Z,44.90
2019-04-28T12:16:20.940Z,44.10
2019-04-28T12:18:56.155Z,43.30
2019-04-28T12:21:26.818Z,42.30
2019-04-28T12:23:57.241Z,42.90
2019-04-28T12:26:27.578Z,41.80
2019-04-28T12:29:00.734Z,41.00
2019-04-28T12:31:30.674Z,40.90
2019-04-28T12:34:01.044Z,42.40
2019-04-28T12:36:31.758Z,43.20
2019-04-28T12:39:02.792Z,43.20
2019-04-28T12:41:33.136Z,43.30
2019-04-28T12:44:03.511Z,45.20
2019-04-28T12:46:33.878Z,45.00
2019-04-28T12:49:09.434Z,45.20
2019-04-28T12:51:40.094Z,44.60
2019-04-28T12:54:12.154Z,44.40
2019-04-28T12:56:42.849Z,44.30
2019-04-28T12:59:18.342Z,44.40
2019-04-28T13:01:51.015Z,44.10
2019-04-28T13:04:23.387Z,42.50
2019-04-28T13:07:03.523Z,41.60
2019-04-28T13:09:33.864Z,41.70
2019-04-28T13:12:05.380Z,42.00
2019-04-28T13:14:35.715Z,42.00
2019-04-28T13:17:06.142Z,41.70
2019-04-28T13:19:36.855Z,42.00
2019-04-28T13:22:07.262Z,42.60
2019-04-28T13:24:37.703Z,43.00
2019-04-28T13:27:10.206Z,43.10
2019-04-28T13:29:40.108Z,41.30
2019-04-28T13:32:10.946Z,41.10
2019-04-28T13:34:41.668Z,41.10
2019-04-28T13:37:31.831Z,40.70
2019-04-28T13:40:04.177Z,39.50
2019-04-28T13:42:34.534Z,38.90
2019-04-28T13:45:09.602Z,37.50
2019-04-28T13:47:40.390Z,35.80
2019-04-28T13:50:13.298Z,36.80
2019-04-28T13:52:43.665Z,36.40
2019-04-28T13:55:16.020Z,35.80
2019-04-28T13:57:46.790Z,36.70
2019-04-28T14:00:34.929Z,38.20
2019-04-28T14:03:23.408Z,37.70
2019-04-28T14:05:55.381Z,38.30
2019-04-28T14:08:25.722Z,38.80
2019-04-28T14:10:56.104Z,38.90
2019-04-28T14:13:26.861Z,40.10
2019-04-28T14:15:57.220Z,40.20
2019-04-28T14:18:27.960Z,37.00
2019-04-28T14:20:58.356Z,36.30
2019-04-28T14:23:28.729Z,36.40
2019-04-28T14:25:59.492Z,37.00
2019-04-28T14:28:30.158Z,37.00
2019-04-28T14:31:00.508Z,36.40
2019-04-28T14:33:31.532Z,36.40
2019-04-28T14:36:01.923Z,37.00
2019-04-28T14:38:32.734Z,37.50
2019-04-28T14:41:03.108Z,36.50
2019-04-28T14:43:33.489Z,38.40
2019-04-28T14:46:03.861Z,38.60
2019-04-28T14:48:34.188Z,39.40
2019-04-28T14:51:04.927Z,39.50
2019-04-28T14:53:35.361Z,39.60
2019-04-28T14:56:07.294Z,40.40
2019-04-28T14:58:38.261Z,40.20
2019-04-28T15:01:12.710Z,39.10
2019-04-28T15:03:48.014Z,38.70
2019-04-28T15:06:20.403Z,37.90
2019-04-28T15:09:04.655Z,37.40
2019-04-28T15:11:36.963Z,37.00
2019-04-28T15:14:07.346Z,37.00
2019-04-28T15:16:37.764Z,36.60
2019-04-28T15:19:08.723Z,36.90
2019-04-28T15:21:39.087Z,37.10
2019-04-28T15:24:09.695Z,37.60
2019-04-28T15:26:40.059Z,37.90
2019-04-28T15:29:11.206Z,38.30
2019-04-28T15:31:42.003Z,38.90
2019-04-28T15:34:12.709Z,38.50
2019-04-28T15:36:43.679Z,37.00
2019-04-28T15:39:14.207Z,36.60
2019-04-28T15:41:44.568Z,36.10
2019-04-28T15:44:15.297Z,35.40
2019-04-28T15:46:45.631Z,35.70
2019-04-28T15:49:16.163Z,36.50
2019-04-28T15:51:46.501Z,36.40
2019-04-28T15:54:17.253Z,36.80
2019-04-28T15:56:48.329Z,36.40
2019-04-28T15:59:38.459Z,34.60
2019-04-28T16:02:08.996Z,34.60
2019-04-28T16:04:40.111Z,35.30
2019-04-28T16:07:23.905Z,35.60
2019-04-28T16:09:42.547Z,35.40
2019-04-28T16:12:16.515Z,34.70
2019-04-28T16:14:47.367Z,33.80
2019-04-28T16:17:20.042Z,33.90
2019-04-28T16:19:49.833Z,33.20
2019-04-28T16:22:20.197Z,33.20
2019-04-28T16:24:50.549Z,33.70
2019-04-28T16:27:21.551Z,34.50
2019-04-28T16:29:51.959Z,34.30
2019-04-28T16:32:22.343Z,34.40
2019-04-28T16:34:53.360Z,33.70
2019-04-28T16:37:23.779Z,34.40
2019-04-28T16:39:54.141Z,34.30
2019-04-28T16:42:25.781Z,34.40
2019-04-28T16:44:56.867Z,34.40
2019-04-28T16:47:27.265Z,34.60
2019-04-28T16:49:57.630Z,34.60
2019-04-28T16:52:28.023Z,34.50
2019-04-28T16:55:15.544Z,34.60
2019-04-28T16:58:04.511Z,34.70
2019-04-28T17:00:42.824Z,35.10
2019-04-28T17:03:15.110Z,35.10
2019-04-28T17:05:45.488Z,35.50
2019-04-28T17:08:16.228Z,36.70
2019-04-28T17:10:46.628Z,36.80
2019-04-28T17:13:17.017Z,36.70
2019-04-28T17:15:47.656Z,36.60
2019-04-28T17:18:18.049Z,36.80
2019-04-28T17:20:48.407Z,37.90
2019-04-28T17:23:21.779Z,37.90
2019-04-28T17:25:52.158Z,36.70
2019-04-28T17:28:22.530Z,37.40
2019-04-28T17:30:53.329Z,37.80
2019-04-28T17:33:23.720Z,37.80
2019-04-28T17:35:54.252Z,37.20
2019-04-28T17:38:24.759Z,38.30
2019-04-28T17:40:55.712Z,39.80
2019-04-28T17:43:26.112Z,37.10
2019-04-28T17:45:57.046Z,37.20
2019-04-28T17:48:29.601Z,36.80
2019-04-28T17:51:00.713Z,37.40
2019-04-28T17:53:31.399Z,37.80
2019-04-28T17:56:01.773Z,38.40
2019-04-28T17:58:32.666Z,38.40
2019-04-28T18:01:19.705Z,39.40
2019-04-28T18:03:54.368Z,39.70
2019-04-28T18:06:29.717Z,39.70
2019-04-28T18:09:00.059Z,40.30
2019-04-28T18:11:30.616Z,39.50
2019-04-28T18:14:04.006Z,39.40
2019-04-28T18:16:41.598Z,40.30
2019-04-28T18:19:16.872Z,41.10
2019-04-28T18:21:47.638Z,41.80
2019-04-28T18:24:18.030Z,42.60
2019-04-28T18:26:49.352Z,42.70
2019-04-28T18:29:21.453Z,43.40
2019-04-28T18:31:55.897Z,43.50
2019-04-28T18:34:46.518Z,43.90
2019-04-28T18:37:34.593Z,44.20
2019-04-28T18:40:09.139Z,44.50
2019-04-28T18:42:43.982Z,45.00
2019-04-28T18:45:14.941Z,45.80
2019-04-28T18:47:45.323Z,46.40
2019-04-28T18:50:15.743Z,46.10
2019-04-28T18:52:46.093Z,46.80
2019-04-28T18:55:16.974Z,47.10
2019-04-28T18:57:49.922Z,48.00
2019-04-28T19:00:21.928Z,48.20
2019-04-28T19:02:52.357Z,48.40
2019-04-28T19:05:24.278Z,48.40
2019-04-28T19:07:59.295Z,49.00
2019-04-28T19:10:40.101Z,49.80
2019-04-28T19:13:23.522Z,50.30
2019-04-28T19:15:58.899Z,50.60
2019-04-28T19:19:25.508Z,50.80
2019-04-28T19:21:56.754Z,51.30
2019-04-28T19:24:27.729Z,51.70
2019-04-28T19:26:58.055Z,52.10
2019-04-28T19:29:28.504Z,52.80
2019-04-28T19:31:58.878Z,52.50
2019-04-28T19:34:29.219Z,52.90
2019-04-28T19:36:59.901Z,53.10
2019-04-28T19:39:30.619Z,53.30
2019-04-28T19:42:00.994Z,53.00
2019-04-28T19:44:31.530Z,53.70
2019-04-28T19:47:01.914Z,54.50
2019-04-28T19:49:32.924Z,54.50
2019-04-28T19:52:03.258Z,54.50
2019-04-28T19:54:36.024Z,55.20
2019-04-28T19:57:08.291Z,55.20
2019-04-28T19:59:49.347Z,55.10
2019-04-28T20:02:19.690Z,55.70
2019-04-28T20:04:50.349Z,55.60
2019-04-28T20:07:20.719Z,55.90
2019-04-28T20:09:51.506Z,56.50
2019-04-28T20:12:21.937Z,57.20
2019-04-28T20:14:52.617Z,57.30
2019-04-28T20:17:23.219Z,57.50
2019-04-28T20:19:53.967Z,58.00
2019-04-28T20:22:24.406Z,57.90
2019-04-28T20:24:55.075Z,58.10
2019-04-28T20:27:26.141Z,57.90
2019-04-28T20:29:57.270Z,58.10
2019-04-28T20:32:27.631Z,58.40
2019-04-28T20:34:57.999Z,58.70
2019-04-28T20:37:36.456Z,58.40
2019-04-28T20:40:21.440Z,58.30
2019-04-28T20:43:01.856Z,58.90
2019-04-28T20:45:31.810Z,58.80
2019-04-28T20:48:02.180Z,59.40
2019-04-28T20:50:32.810Z,59.20
2019-04-28T20:53:03.387Z,59.10
2019-04-28T20:55:36.485Z,59.20
2019-04-28T20:58:06.825Z,60.00
2019-04-28T21:00:37.186Z,59.90
2019-04-28T21:03:10.773Z,60.10
2019-04-28T21:05:41.110Z,59.40
2019-04-28T21:08:11.821Z,59.50
2019-04-28T21:10:42.576Z,59.20
2019-04-28T21:13:13.628Z,59.20
2019-04-28T21:15:44.334Z,58.90
2019-04-28T21:18:14.698Z,58.90
2019-04-28T21:20:45.068Z,59.60
2019-04-28T21:23:15.818Z,59.10
2019-04-28T21:25:46.276Z,59.00
2019-04-28T21:28:17.042Z,59.30
2019-04-28T21:30:47.395Z,59.40
2019-04-28T21:33:18.191Z,59.60
2019-04-28T21:35:48.874Z,59.90
2019-04-28T21:38:19.624Z,60.50
2019-04-28T21:40:49.992Z,60.50
2019-04-28T21:43:22.282Z,61.60
2019-04-28T21:45:56.715Z,61.60
2019-04-28T21:48:43.911Z,61.50
2019-04-28T21:51:15.257Z,60.60
2019-04-28T21:53:46.049Z,60.00
2019-04-28T21:56:16.541Z,61.10
2019-04-28T21:59:06.877Z,61.40
2019-04-28T22:01:37.827Z,61.40
2019-04-28T22:04:08.609Z,61.50
2019-04-28T22:06:39.310Z,62.00
2019-04-28T22:09:11.135Z,61.40
2019-04-28T22:12:01.305Z,61.40
2019-04-28T22:14:31.670Z,60.90
2019-04-28T22:17:02.082Z,59.90
2019-04-28T22:19:32.452Z,60.10
2019-04-28T22:22:02.842Z,59.90
2019-04-28T22:24:38.845Z,59.70
2019-04-28T22:27:10.721Z,59.90
2019-04-28T22:29:42.068Z,60.40
2019-04-28T22:32:12.792Z,60.60
2019-04-28T22:34:43.755Z,61.40
2019-04-28T22:37:14.904Z,61.90
2019-04-28T22:39:47.061Z,62.10
2019-04-28T22:42:17.527Z,63.20
2019-04-28T22:44:48.076Z,63.80
2019-04-28T22:47:18.486Z,63.90
2019-04-28T22:49:49.227Z,65.10
2019-04-28T22:52:19.906Z,63.90
2019-04-28T22:54:52.709Z,64.90
2019-04-28T22:57:25.085Z,64.60
2019-04-28T22:59:57.069Z,65.30
2019-04-28T23:02:29.158Z,64.60
2019-04-28T23:05:09.219Z,65.10
2019-04-28T23:07:39.918Z,65.10
2019-04-28T23:10:12.288Z,64.50
2019-04-28T23:12:42.665Z,64.70
2019-04-28T23:15:14.100Z,64.70
2019-04-28T23:17:44.885Z,64.80
2019-04-28T23:20:15.627Z,66.10
2019-04-28T23:22:48.396Z,65.60
2019-04-28T23:25:19.074Z,66.10
2019-04-28T23:27:49.750Z,66.00
2019-04-28T23:30:43.954Z,65.90
2019-04-28T23:33:14.672Z,66.50
2019-04-28T23:35:45.603Z,67.30
2019-04-28T23:38:16.012Z,67.50
2019-04-28T23:40:57.604Z,68.10
2019-04-28T23:43:27.942Z,68.90
2019-04-28T23:45:58.383Z,68.80
2019-04-28T23:48:28.807Z,69.20
2019-04-28T23:51:01.213Z,69.00
2019-04-28T23:53:49.983Z,69.90
2019-04-28T23:56:20.393Z,70.60
2019-04-28T23:58:51.101Z,70.60
